sensor_id;sensor_type;location;lat;lon;timestamp;P1;durP1;ratioP1;P2;durP2;ratioP2
36443;SDS011;24692;45.642;13.806;2023-02-28T00:01:00;13.57;;;9.07;;
36443;SDS011;24692;45.642;13.806;2023-02-28T00:03:26;12.60;;;8.57;;
36443;SDS011;24692;45.642;13.806;2023-02-28T00:05:51;13.03;;;9.10;;
36443;SDS011;24692;45.642;13.806;2023-02-28T00:08:17;12.30;;;9.03;;
36443;SDS011;24692;45.642;13.806;2023-02-28T00:10:42;14.37;;;9.13;;
36443;SDS011;24692;45.642;13.806;2023-02-28T00:13:08;13.07;;;8.70;;
36443;SDS011;24692;45.642;13.806;2023-02-28T00:15:34;15.80;;;9.30;;
36443;SDS011;24692;45.642;13.806;2023-02-28T00:18:00;12.70;;;9.10;;
36443;SDS011;24692;45.642;13.806;2023-02-28T00:20:25;14.87;;;9.63;;
36443;SDS011;24692;45.642;13.806;2023-02-28T00:22:52;14.10;;;9.07;;
36443;SDS011;24692;45.642;13.806;2023-02-28T00:25:19;13.33;;;9.13;;
36443;SDS011;24692;45.642;13.806;2023-02-28T00:27:47;14.63;;;9.67;;
36443;SDS011;24692;45.642;13.806;2023-02-28T00:30:14;13.80;;;8.60;;
36443;SDS011;24692;45.642;13.806;2023-02-28T00:32:42;14.57;;;9.17;;
36443;SDS011;24692;45.642;13.806;2023-02-28T00:35:09;16.83;;;10.00;;
36443;SDS011;24692;45.642;13.806;2023-02-28T00:37:35;16.27;;;9.47;;
36443;SDS011;24692;45.642;13.806;2023-02-28T00:40:01;15.37;;;9.50;;
36443;SDS011;24692;45.642;13.806;2023-02-28T00:42:29;13.23;;;8.23;;
36443;SDS011;24692;45.642;13.806;2023-02-28T00:44:55;13.40;;;8.43;;
36443;SDS011;24692;45.642;13.806;2023-02-28T00:47:21;14.53;;;9.90;;
36443;SDS011;24692;45.642;13.806;2023-02-28T00:49:46;16.00;;;9.20;;
36443;SDS011;24692;45.642;13.806;2023-02-28T00:52:12;14.00;;;8.93;;
36443;SDS011;24692;45.642;13.806;2023-02-28T00:54:38;16.07;;;9.33;;
36443;SDS011;24692;45.642;13.806;2023-02-28T00:57:03;17.17;;;9.47;;
36443;SDS011;24692;45.642;13.806;2023-02-28T00:59:29;15.10;;;9.63;;
36443;SDS011;24692;45.642;13.806;2023-02-28T01:01:55;16.87;;;9.93;;
36443;SDS011;24692;45.642;13.806;2023-02-28T01:04:20;14.63;;;9.87;;
36443;SDS011;24692;45.642;13.806;2023-02-28T01:06:46;14.47;;;9.07;;
36443;SDS011;24692;45.642;13.806;2023-02-28T01:09:11;15.13;;;9.90;;
36443;SDS011;24692;45.642;13.806;2023-02-28T01:11:37;13.87;;;8.83;;
36443;SDS011;24692;45.642;13.806;2023-02-28T01:14:05;14.60;;;9.77;;
36443;SDS011;24692;45.642;13.806;2023-02-28T01:16:31;16.53;;;9.80;;
36443;SDS011;24692;45.642;13.806;2023-02-28T01:18:57;15.97;;;9.83;;
36443;SDS011;24692;45.642;13.806;2023-02-28T01:21:22;16.93;;;10.33;;
36443;SDS011;24692;45.642;13.806;2023-02-28T01:23:49;15.83;;;9.97;;
36443;SDS011;24692;45.642;13.806;2023-02-28T01:28:48;14.43;;;9.30;;
36443;SDS011;24692;45.642;13.806;2023-02-28T01:31:14;14.10;;;9.10;;
36443;SDS011;24692;45.642;13.806;2023-02-28T01:33:40;13.60;;;9.27;;
36443;SDS011;24692;45.642;13.806;2023-02-28T01:36:08;16.77;;;9.63;;
36443;SDS011;24692;45.642;13.806;2023-02-28T01:38:36;17.17;;;9.60;;
36443;SDS011;24692;45.642;13.806;2023-02-28T01:41:02;14.03;;;9.47;;
36443;SDS011;24692;45.642;13.806;2023-02-28T01:46:09;16.00;;;9.73;;
36443;SDS011;24692;45.642;13.806;2023-02-28T01:48:37;15.87;;;9.43;;
36443;SDS011;24692;45.642;13.806;2023-02-28T01:51:10;14.53;;;9.33;;
36443;SDS011;24692;45.642;13.806;2023-02-28T01:53:44;15.50;;;9.10;;
36443;SDS011;24692;45.642;13.806;2023-02-28T01:56:14;16.03;;;9.30;;
36443;SDS011;24692;45.642;13.806;2023-02-28T01:58:48;12.70;;;9.20;;
36443;SDS011;24692;45.642;13.806;2023-02-28T02:01:18;14.07;;;9.57;;
36443;SDS011;24692;45.642;13.806;2023-02-28T02:03:53;13.40;;;8.50;;
36443;SDS011;24692;45.642;13.806;2023-02-28T02:06:31;14.97;;;8.83;;
36443;SDS011;24692;45.642;13.806;2023-02-28T02:09:02;12.00;;;8.63;;
36443;SDS011;24692;45.642;13.806;2023-02-28T02:11:28;12.63;;;7.97;;
36443;SDS011;24692;45.642;13.806;2023-02-28T02:22:57;13.87;;;8.93;;
36443;SDS011;24692;45.642;13.806;2023-02-28T02:35:59;15.07;;;8.70;;
36443;SDS011;24692;45.642;13.806;2023-02-28T02:38:52;14.33;;;8.70;;
36443;SDS011;24692;45.642;13.806;2023-02-28T02:41:40;14.63;;;8.43;;
36443;SDS011;24692;45.642;13.806;2023-02-28T02:44:23;12.57;;;7.93;;
36443;SDS011;24692;45.642;13.806;2023-02-28T02:47:00;12.90;;;8.10;;
36443;SDS011;24692;45.642;13.806;2023-02-28T02:49:32;13.60;;;8.37;;
36443;SDS011;24692;45.642;13.806;2023-02-28T02:52:03;14.57;;;8.63;;
36443;SDS011;24692;45.642;13.806;2023-02-28T02:54:33;15.00;;;9.67;;
36443;SDS011;24692;45.642;13.806;2023-02-28T02:57:11;12.80;;;8.20;;
36443;SDS011;24692;45.642;13.806;2023-02-28T02:59:43;11.30;;;7.90;;
36443;SDS011;24692;45.642;13.806;2023-02-28T03:02:11;11.10;;;7.80;;
36443;SDS011;24692;45.642;13.806;2023-02-28T03:04:51;11.47;;;8.23;;
36443;SDS011;24692;45.642;13.806;2023-02-28T03:07:25;13.00;;;8.67;;
36443;SDS011;24692;45.642;13.806;2023-02-28T03:09:51;13.43;;;7.70;;
36443;SDS011;24692;45.642;13.806;2023-02-28T03:12:18;12.73;;;8.47;;
36443;SDS011;24692;45.642;13.806;2023-02-28T03:28:31;10.23;;;6.83;;
36443;SDS011;24692;45.642;13.806;2023-02-28T03:31:07;9.90;;;6.73;;
36443;SDS011;24692;45.642;13.806;2023-02-28T03:33:50;11.90;;;7.23;;
36443;SDS011;24692;45.642;13.806;2023-02-28T03:36:25;11.47;;;7.50;;
36443;SDS011;24692;45.642;13.806;2023-02-28T03:38:56;9.07;;;6.50;;
36443;SDS011;24692;45.642;13.806;2023-02-28T03:42:28;11.10;;;7.83;;
36443;SDS011;24692;45.642;13.806;2023-02-28T03:44:26;10.40;;;7.17;;
36443;SDS011;24692;45.642;13.806;2023-02-28T03:47:07;9.03;;;6.33;;
36443;SDS011;24692;45.642;13.806;2023-02-28T03:49:55;14.03;;;7.07;;
36443;SDS011;24692;45.642;13.806;2023-02-28T03:52:25;10.93;;;6.93;;
36443;SDS011;24692;45.642;13.806;2023-02-28T03:54:56;8.97;;;6.53;;
36443;SDS011;24692;45.642;13.806;2023-02-28T03:57:32;12.23;;;7.10;;
36443;SDS011;24692;45.642;13.806;2023-02-28T04:00:12;9.43;;;7.07;;
36443;SDS011;24692;45.642;13.806;2023-02-28T04:02:59;11.97;;;6.73;;
36443;SDS011;24692;45.642;13.806;2023-02-28T04:05:25;9.20;;;6.67;;
36443;SDS011;24692;45.642;13.806;2023-02-28T04:07:52;10.43;;;6.90;;
36443;SDS011;24692;45.642;13.806;2023-02-28T04:10:19;9.80;;;6.77;;
36443;SDS011;24692;45.642;13.806;2023-02-28T04:12:45;9.13;;;6.40;;
36443;SDS011;24692;45.642;13.806;2023-02-28T04:15:10;10.40;;;6.63;;
36443;SDS011;24692;45.642;13.806;2023-02-28T04:17:36;11.47;;;7.17;;
36443;SDS011;24692;45.642;13.806;2023-02-28T04:20:03;10.87;;;7.23;;
36443;SDS011;24692;45.642;13.806;2023-02-28T04:22:34;9.30;;;6.93;;
36443;SDS011;24692;45.642;13.806;2023-02-28T04:25:00;11.47;;;7.10;;
36443;SDS011;24692;45.642;13.806;2023-02-28T04:27:25;10.03;;;7.03;;
36443;SDS011;24692;45.642;13.806;2023-02-28T04:29:51;10.27;;;6.70;;
36443;SDS011;24692;45.642;13.806;2023-02-28T04:32:17;11.23;;;7.13;;
36443;SDS011;24692;45.642;13.806;2023-02-28T04:34:42;11.53;;;6.80;;
36443;SDS011;24692;45.642;13.806;2023-02-28T04:37:08;13.00;;;6.77;;
36443;SDS011;24692;45.642;13.806;2023-02-28T04:39:34;8.30;;;6.10;;
36443;SDS011;24692;45.642;13.806;2023-02-28T04:42:01;10.27;;;7.20;;
36443;SDS011;24692;45.642;13.806;2023-02-28T04:44:28;10.73;;;7.47;;
36443;SDS011;24692;45.642;13.806;2023-02-28T04:46:53;9.07;;;7.03;;
36443;SDS011;24692;45.642;13.806;2023-02-28T04:49:19;10.03;;;6.97;;
36443;SDS011;24692;45.642;13.806;2023-02-28T04:51:44;10.50;;;7.30;;
36443;SDS011;24692;45.642;13.806;2023-02-28T04:54:10;10.77;;;6.57;;
36443;SDS011;24692;45.642;13.806;2023-02-28T04:56:36;10.93;;;7.10;;
36443;SDS011;24692;45.642;13.806;2023-02-28T04:59:02;10.70;;;7.27;;
36443;SDS011;24692;45.642;13.806;2023-02-28T05:01:29;9.70;;;7.57;;
36443;SDS011;24692;45.642;13.806;2023-02-28T05:03:58;9.37;;;6.77;;
36443;SDS011;24692;45.642;13.806;2023-02-28T05:06:25;12.03;;;6.93;;
36443;SDS011;24692;45.642;13.806;2023-02-28T05:08:52;8.73;;;6.87;;
36443;SDS011;24692;45.642;13.806;2023-02-28T05:11:20;10.87;;;7.53;;
36443;SDS011;24692;45.642;13.806;2023-02-28T05:13:50;10.17;;;7.30;;
36443;SDS011;24692;45.642;13.806;2023-02-28T05:16:17;12.50;;;7.60;;
36443;SDS011;24692;45.642;13.806;2023-02-28T05:18:43;10.77;;;7.17;;
36443;SDS011;24692;45.642;13.806;2023-02-28T05:21:29;11.23;;;7.77;;
36443;SDS011;24692;45.642;13.806;2023-02-28T05:23:57;11.27;;;7.43;;
36443;SDS011;24692;45.642;13.806;2023-02-28T05:26:24;10.73;;;7.73;;
36443;SDS011;24692;45.642;13.806;2023-02-28T05:28:51;11.00;;;7.47;;
36443;SDS011;24692;45.642;13.806;2023-02-28T05:31:16;12.50;;;7.07;;
36443;SDS011;24692;45.642;13.806;2023-02-28T05:33:42;11.23;;;7.60;;
36443;SDS011;24692;45.642;13.806;2023-02-28T05:36:08;10.53;;;7.43;;
36443;SDS011;24692;45.642;13.806;2023-02-28T05:38:34;9.10;;;7.00;;
36443;SDS011;24692;45.642;13.806;2023-02-28T05:40:59;11.93;;;7.37;;
36443;SDS011;24692;45.642;13.806;2023-02-28T05:43:25;11.83;;;7.50;;
36443;SDS011;24692;45.642;13.806;2023-02-28T05:45:50;12.23;;;7.47;;
36443;SDS011;24692;45.642;13.806;2023-02-28T05:48:16;11.50;;;7.27;;
36443;SDS011;24692;45.642;13.806;2023-02-28T05:50:43;10.47;;;6.90;;
36443;SDS011;24692;45.642;13.806;2023-02-28T05:53:11;9.80;;;6.53;;
36443;SDS011;24692;45.642;13.806;2023-02-28T05:55:36;9.63;;;6.50;;
36443;SDS011;24692;45.642;13.806;2023-02-28T05:58:03;9.97;;;7.07;;
36443;SDS011;24692;45.642;13.806;2023-02-28T06:00:28;8.20;;;6.20;;
36443;SDS011;24692;45.642;13.806;2023-02-28T06:02:54;8.10;;;6.17;;
36443;SDS011;24692;45.642;13.806;2023-02-28T06:05:23;10.77;;;6.60;;
36443;SDS011;24692;45.642;13.806;2023-02-28T06:07:49;9.07;;;6.27;;
36443;SDS011;24692;45.642;13.806;2023-02-28T06:10:15;9.77;;;5.90;;
36443;SDS011;24692;45.642;13.806;2023-02-28T06:12:41;7.83;;;5.60;;
36443;SDS011;24692;45.642;13.806;2023-02-28T06:15:07;10.13;;;6.47;;
36443;SDS011;24692;45.642;13.806;2023-02-28T06:17:37;11.43;;;7.00;;
36443;SDS011;24692;45.642;13.806;2023-02-28T06:20:03;10.50;;;6.60;;
36443;SDS011;24692;45.642;13.806;2023-02-28T06:22:29;10.70;;;6.53;;
36443;SDS011;24692;45.642;13.806;2023-02-28T06:24:56;9.43;;;6.63;;
36443;SDS011;24692;45.642;13.806;2023-02-28T06:27:22;9.23;;;6.47;;
36443;SDS011;24692;45.642;13.806;2023-02-28T06:29:48;9.33;;;6.50;;
36443;SDS011;24692;45.642;13.806;2023-02-28T06:32:14;10.67;;;6.50;;
36443;SDS011;24692;45.642;13.806;2023-02-28T06:34:39;8.70;;;6.17;;
36443;SDS011;24692;45.642;13.806;2023-02-28T06:37:05;9.90;;;6.70;;
36443;SDS011;24692;45.642;13.806;2023-02-28T06:39:31;10.90;;;6.30;;
36443;SDS011;24692;45.642;13.806;2023-02-28T06:41:56;10.30;;;6.67;;
36443;SDS011;24692;45.642;13.806;2023-02-28T06:44:22;11.13;;;6.87;;
36443;SDS011;24692;45.642;13.806;2023-02-28T06:46:49;11.30;;;6.90;;
36443;SDS011;24692;45.642;13.806;2023-02-28T06:49:14;9.07;;;6.83;;
36443;SDS011;24692;45.642;13.806;2023-02-28T06:51:41;10.30;;;7.10;;
36443;SDS011;24692;45.642;13.806;2023-02-28T06:54:10;9.37;;;6.33;;
36443;SDS011;24692;45.642;13.806;2023-02-28T06:56:36;9.97;;;6.40;;
36443;SDS011;24692;45.642;13.806;2023-02-28T06:59:03;10.13;;;6.40;;
36443;SDS011;24692;45.642;13.806;2023-02-28T07:01:29;8.77;;;6.00;;
36443;SDS011;24692;45.642;13.806;2023-02-28T07:03:56;8.77;;;6.27;;
36443;SDS011;24692;45.642;13.806;2023-02-28T07:06:22;8.70;;;6.37;;
36443;SDS011;24692;45.642;13.806;2023-02-28T07:08:50;10.50;;;6.97;;
36443;SDS011;24692;45.642;13.806;2023-02-28T07:11:17;9.40;;;6.30;;
36443;SDS011;24692;45.642;13.806;2023-02-28T07:13:43;9.33;;;6.60;;
36443;SDS011;24692;45.642;13.806;2023-02-28T07:16:10;10.03;;;6.23;;
36443;SDS011;24692;45.642;13.806;2023-02-28T07:18:36;8.63;;;6.00;;
36443;SDS011;24692;45.642;13.806;2023-02-28T07:21:03;8.30;;;6.07;;
36443;SDS011;24692;45.642;13.806;2023-02-28T07:23:32;9.43;;;6.30;;
36443;SDS011;24692;45.642;13.806;2023-02-28T07:26:00;8.53;;;6.37;;
36443;SDS011;24692;45.642;13.806;2023-02-28T07:28:35;8.37;;;6.00;;
36443;SDS011;24692;45.642;13.806;2023-02-28T07:31:05;9.47;;;5.80;;
36443;SDS011;24692;45.642;13.806;2023-02-28T07:33:41;8.07;;;5.77;;
36443;SDS011;24692;45.642;13.806;2023-02-28T07:36:10;9.90;;;6.63;;
36443;SDS011;24692;45.642;13.806;2023-02-28T07:38:44;8.30;;;5.83;;
36443;SDS011;24692;45.642;13.806;2023-02-28T07:41:14;9.10;;;5.80;;
36443;SDS011;24692;45.642;13.806;2023-02-28T07:43:44;8.97;;;6.03;;
36443;SDS011;24692;45.642;13.806;2023-02-28T07:46:11;8.70;;;5.70;;
36443;SDS011;24692;45.642;13.806;2023-02-28T07:48:40;9.53;;;6.03;;
36443;SDS011;24692;45.642;13.806;2023-02-28T07:51:06;8.60;;;5.63;;
36443;SDS011;24692;45.642;13.806;2023-02-28T07:53:31;7.37;;;5.63;;
36443;SDS011;24692;45.642;13.806;2023-02-28T07:55:58;9.97;;;5.87;;
36443;SDS011;24692;45.642;13.806;2023-02-28T07:58:24;9.07;;;5.93;;
36443;SDS011;24692;45.642;13.806;2023-02-28T08:00:51;9.03;;;5.50;;
36443;SDS011;24692;45.642;13.806;2023-02-28T08:03:17;10.17;;;5.57;;
36443;SDS011;24692;45.642;13.806;2023-02-28T08:05:43;8.90;;;5.57;;
36443;SDS011;24692;45.642;13.806;2023-02-28T08:08:09;8.33;;;5.37;;
36443;SDS011;24692;45.642;13.806;2023-02-28T08:10:35;6.73;;;5.00;;
36443;SDS011;24692;45.642;13.806;2023-02-28T08:13:01;6.83;;;5.20;;
36443;SDS011;24692;45.642;13.806;2023-02-28T08:15:27;5.43;;;4.80;;
36443;SDS011;24692;45.642;13.806;2023-02-28T08:17:52;7.70;;;4.67;;
36443;SDS011;24692;45.642;13.806;2023-02-28T08:20:18;6.63;;;4.83;;
36443;SDS011;24692;45.642;13.806;2023-02-28T08:22:44;7.13;;;5.23;;
36443;SDS011;24692;45.642;13.806;2023-02-28T08:25:10;7.73;;;4.77;;
36443;SDS011;24692;45.642;13.806;2023-02-28T08:27:35;8.10;;;4.80;;
36443;SDS011;24692;45.642;13.806;2023-02-28T08:30:02;8.17;;;4.77;;
36443;SDS011;24692;45.642;13.806;2023-02-28T08:32:28;6.17;;;4.90;;
36443;SDS011;24692;45.642;13.806;2023-02-28T08:34:54;6.67;;;4.40;;
36443;SDS011;24692;45.642;13.806;2023-02-28T08:37:19;5.87;;;4.57;;
36443;SDS011;24692;45.642;13.806;2023-02-28T08:39:45;5.33;;;3.93;;
36443;SDS011;24692;45.642;13.806;2023-02-28T08:42:11;7.73;;;4.67;;
36443;SDS011;24692;45.642;13.806;2023-02-28T08:44:36;6.70;;;4.17;;
36443;SDS011;24692;45.642;13.806;2023-02-28T08:47:02;8.53;;;4.60;;
36443;SDS011;24692;45.642;13.806;2023-02-28T08:49:28;8.17;;;4.30;;
36443;SDS011;24692;45.642;13.806;2023-02-28T08:51:53;8.10;;;4.97;;
36443;SDS011;24692;45.642;13.806;2023-02-28T08:54:20;6.50;;;4.57;;
36443;SDS011;24692;45.642;13.806;2023-02-28T08:56:46;6.30;;;4.40;;
36443;SDS011;24692;45.642;13.806;2023-02-28T08:59:14;6.37;;;4.30;;
36443;SDS011;24692;45.642;13.806;2023-02-28T09:01:46;6.47;;;4.50;;
36443;SDS011;24692;45.642;13.806;2023-02-28T09:04:13;5.27;;;4.10;;
36443;SDS011;24692;45.642;13.806;2023-02-28T09:06:41;6.40;;;4.40;;
36443;SDS011;24692;45.642;13.806;2023-02-28T09:09:07;6.00;;;4.47;;
36443;SDS011;24692;45.642;13.806;2023-02-28T09:11:38;5.73;;;4.57;;
36443;SDS011;24692;45.642;13.806;2023-02-28T09:14:04;5.97;;;4.43;;
36443;SDS011;24692;45.642;13.806;2023-02-28T09:16:42;6.20;;;4.13;;
36443;SDS011;24692;45.642;13.806;2023-02-28T09:19:15;5.33;;;4.10;;
36443;SDS011;24692;45.642;13.806;2023-02-28T09:21:40;6.07;;;4.00;;
36443;SDS011;24692;45.642;13.806;2023-02-28T09:24:06;6.13;;;4.57;;
36443;SDS011;24692;45.642;13.806;2023-02-28T09:26:32;5.23;;;4.20;;
36443;SDS011;24692;45.642;13.806;2023-02-28T09:28:59;5.50;;;4.03;;
36443;SDS011;24692;45.642;13.806;2023-02-28T09:31:26;5.47;;;4.40;;
36443;SDS011;24692;45.642;13.806;2023-02-28T09:33:54;5.43;;;4.03;;
36443;SDS011;24692;45.642;13.806;2023-02-28T09:36:22;6.03;;;4.50;;
36443;SDS011;24692;45.642;13.806;2023-02-28T09:38:49;6.17;;;4.17;;
36443;SDS011;24692;45.642;13.806;2023-02-28T09:41:21;8.67;;;4.73;;
36443;SDS011;24692;45.642;13.806;2023-02-28T09:43:56;4.70;;;4.00;;
36443;SDS011;24692;45.642;13.806;2023-02-28T09:49:04;7.23;;;4.20;;
36443;SDS011;24692;45.642;13.806;2023-02-28T09:54:21;5.60;;;4.60;;
36443;SDS011;24692;45.642;13.806;2023-02-28T09:57:05;6.47;;;4.03;;
36443;SDS011;24692;45.642;13.806;2023-02-28T10:05:00;6.00;;;4.40;;
36443;SDS011;24692;45.642;13.806;2023-02-28T10:07:52;5.80;;;4.70;;
36443;SDS011;24692;45.642;13.806;2023-02-28T10:10:49;6.43;;;4.40;;
36443;SDS011;24692;45.642;13.806;2023-02-28T10:16:12;8.37;;;5.20;;
36443;SDS011;24692;45.642;13.806;2023-02-28T10:18:48;4.93;;;4.17;;
36443;SDS011;24692;45.642;13.806;2023-02-28T10:21:26;6.30;;;4.83;;
36443;SDS011;24692;45.642;13.806;2023-02-28T10:23:53;6.07;;;4.80;;
36443;SDS011;24692;45.642;13.806;2023-02-28T10:26:26;8.13;;;5.03;;
36443;SDS011;24692;45.642;13.806;2023-02-28T10:28:55;5.37;;;4.50;;
36443;SDS011;24692;45.642;13.806;2023-02-28T10:31:20;6.00;;;4.57;;
36443;SDS011;24692;45.642;13.806;2023-02-28T10:33:47;6.13;;;4.80;;
36443;SDS011;24692;45.642;13.806;2023-02-28T10:36:17;6.03;;;5.00;;
36443;SDS011;24692;45.642;13.806;2023-02-28T10:38:44;5.17;;;4.67;;
36443;SDS011;24692;45.642;13.806;2023-02-28T10:41:16;6.90;;;5.03;;
36443;SDS011;24692;45.642;13.806;2023-02-28T10:43:53;6.97;;;5.13;;
36443;SDS011;24692;45.642;13.806;2023-02-28T10:46:40;8.40;;;5.60;;
36443;SDS011;24692;45.642;13.806;2023-02-28T10:49:23;6.43;;;5.40;;
36443;SDS011;24692;45.642;13.806;2023-02-28T10:51:57;7.20;;;5.67;;
36443;SDS011;24692;45.642;13.806;2023-02-28T10:54:35;8.07;;;5.50;;
36443;SDS011;24692;45.642;13.806;2023-02-28T10:57:14;6.93;;;5.73;;
36443;SDS011;24692;45.642;13.806;2023-02-28T10:59:46;6.30;;;5.30;;
36443;SDS011;24692;45.642;13.806;2023-02-28T11:02:31;6.73;;;5.47;;
36443;SDS011;24692;45.642;13.806;2023-02-28T11:05:17;7.40;;;5.23;;
36443;SDS011;24692;45.642;13.806;2023-02-28T11:07:51;6.23;;;5.20;;
36443;SDS011;24692;45.642;13.806;2023-02-28T11:10:37;7.80;;;5.67;;
36443;SDS011;24692;45.642;13.806;2023-02-28T11:13:03;7.30;;;5.90;;
36443;SDS011;24692;45.642;13.806;2023-02-28T11:15:30;10.17;;;6.10;;
36443;SDS011;24692;45.642;13.806;2023-02-28T11:17:59;8.30;;;6.30;;
36443;SDS011;24692;45.642;13.806;2023-02-28T11:20:43;10.70;;;6.77;;
36443;SDS011;24692;45.642;13.806;2023-02-28T11:23:14;8.83;;;6.47;;
36443;SDS011;24692;45.642;13.806;2023-02-28T11:25:45;10.37;;;6.93;;
36443;SDS011;24692;45.642;13.806;2023-02-28T11:28:27;8.33;;;6.67;;
36443;SDS011;24692;45.642;13.806;2023-02-28T11:31:03;10.30;;;6.63;;
36443;SDS011;24692;45.642;13.806;2023-02-28T11:33:37;7.97;;;5.90;;
36443;SDS011;24692;45.642;13.806;2023-02-28T11:38:49;8.70;;;6.13;;
36443;SDS011;24692;45.642;13.806;2023-02-28T11:46:41;8.13;;;6.00;;
36443;SDS011;24692;45.642;13.806;2023-02-28T12:00:05;8.70;;;6.40;;
36443;SDS011;24692;45.642;13.806;2023-02-28T12:05:43;8.73;;;6.40;;
36443;SDS011;24692;45.642;13.806;2023-02-28T12:11:11;10.90;;;8.00;;
36443;SDS011;24692;45.642;13.806;2023-02-28T12:16:38;9.77;;;7.00;;
36443;SDS011;24692;45.642;13.806;2023-02-28T12:22:26;11.47;;;7.87;;
36443;SDS011;24692;45.642;13.806;2023-02-28T12:27:37;10.67;;;8.03;;
36443;SDS011;24692;45.642;13.806;2023-02-28T12:32:42;11.20;;;7.57;;
36443;SDS011;24692;45.642;13.806;2023-02-28T12:35:13;12.20;;;7.83;;
36443;SDS011;24692;45.642;13.806;2023-02-28T12:37:44;14.13;;;8.23;;
36443;SDS011;24692;45.642;13.806;2023-02-28T12:42:44;12.40;;;8.33;;
36443;SDS011;24692;45.642;13.806;2023-02-28T12:47:48;11.63;;;8.27;;
36443;SDS011;24692;45.642;13.806;2023-02-28T12:50:20;13.00;;;8.90;;
36443;SDS011;24692;45.642;13.806;2023-02-28T12:55:31;12.37;;;8.57;;
36443;SDS011;24692;45.642;13.806;2023-02-28T13:06:43;14.93;;;9.00;;
36443;SDS011;24692;45.642;13.806;2023-02-28T13:09:17;12.80;;;9.00;;
36443;SDS011;24692;45.642;13.806;2023-02-28T13:14:29;12.63;;;9.60;;
36443;SDS011;24692;45.642;13.806;2023-02-28T13:19:35;14.53;;;9.67;;
36443;SDS011;24692;45.642;13.806;2023-02-28T13:22:20;13.87;;;9.67;;
36443;SDS011;24692;45.642;13.806;2023-02-28T13:25:04;13.67;;;9.70;;
36443;SDS011;24692;45.642;13.806;2023-02-28T13:27:49;15.50;;;10.30;;
36443;SDS011;24692;45.642;13.806;2023-02-28T13:35:45;15.80;;;11.37;;
36443;SDS011;24692;45.642;13.806;2023-02-28T13:38:22;15.13;;;10.60;;
36443;SDS011;24692;45.642;13.806;2023-02-28T13:41:21;14.93;;;10.40;;
36443;SDS011;24692;45.642;13.806;2023-02-28T13:43:59;16.77;;;10.93;;
36443;SDS011;24692;45.642;13.806;2023-02-28T13:49:31;16.77;;;10.93;;
36443;SDS011;24692;45.642;13.806;2023-02-28T13:54:50;15.50;;;11.47;;
36443;SDS011;24692;45.642;13.806;2023-02-28T14:05:21;16.07;;;10.87;;
36443;SDS011;24692;45.642;13.806;2023-02-28T14:07:52;15.27;;;11.60;;
36443;SDS011;24692;45.642;13.806;2023-02-28T14:10:28;15.13;;;10.53;;
36443;SDS011;24692;45.642;13.806;2023-02-28T14:16:02;14.10;;;10.20;;
36443;SDS011;24692;45.642;13.806;2023-02-28T14:18:33;25.33;;;11.33;;
36443;SDS011;24692;45.642;13.806;2023-02-28T14:21:13;15.93;;;11.10;;
36443;SDS011;24692;45.642;13.806;2023-02-28T14:29:19;20.43;;;11.97;;
36443;SDS011;24692;45.642;13.806;2023-02-28T14:34:39;17.40;;;10.40;;
36443;SDS011;24692;45.642;13.806;2023-02-28T14:37:20;15.27;;;10.90;;
36443;SDS011;24692;45.642;13.806;2023-02-28T14:39:55;14.57;;;10.60;;
36443;SDS011;24692;45.642;13.806;2023-02-28T14:42:36;15.57;;;11.10;;
36443;SDS011;24692;45.642;13.806;2023-02-28T14:45:21;16.43;;;11.10;;
36443;SDS011;24692;45.642;13.806;2023-02-28T14:47:48;16.90;;;11.23;;
36443;SDS011;24692;45.642;13.806;2023-02-28T14:50:20;15.23;;;10.50;;
36443;SDS011;24692;45.642;13.806;2023-02-28T14:52:47;16.80;;;10.90;;
36443;SDS011;24692;45.642;13.806;2023-02-28T14:55:18;17.00;;;11.30;;
36443;SDS011;24692;45.642;13.806;2023-02-28T14:57:52;16.50;;;11.60;;
36443;SDS011;24692;45.642;13.806;2023-02-28T15:00:23;15.63;;;10.37;;
36443;SDS011;24692;45.642;13.806;2023-02-28T15:03:18;20.43;;;11.73;;
36443;SDS011;24692;45.642;13.806;2023-02-28T15:05:56;17.27;;;11.10;;
36443;SDS011;24692;45.642;13.806;2023-02-28T15:08:24;17.70;;;11.30;;
36443;SDS011;24692;45.642;13.806;2023-02-28T15:10:55;14.63;;;10.70;;
36443;SDS011;24692;45.642;13.806;2023-02-28T15:13:23;14.40;;;10.80;;
36443;SDS011;24692;45.642;13.806;2023-02-28T15:16:01;17.57;;;11.77;;
36443;SDS011;24692;45.642;13.806;2023-02-28T15:21:04;14.40;;;10.60;;
36443;SDS011;24692;45.642;13.806;2023-02-28T15:23:32;16.60;;;11.67;;
36443;SDS011;24692;45.642;13.806;2023-02-28T15:26:01;15.10;;;10.87;;
36443;SDS011;24692;45.642;13.806;2023-02-28T15:28:27;17.50;;;11.50;;
36443;SDS011;24692;45.642;13.806;2023-02-28T15:30:58;16.70;;;11.60;;
36443;SDS011;24692;45.642;13.806;2023-02-28T15:33:26;15.27;;;10.93;;
36443;SDS011;24692;45.642;13.806;2023-02-28T15:38:36;16.50;;;12.33;;
36443;SDS011;24692;45.642;13.806;2023-02-28T15:41:02;17.73;;;12.07;;
36443;SDS011;24692;45.642;13.806;2023-02-28T15:43:34;15.50;;;11.97;;
36443;SDS011;24692;45.642;13.806;2023-02-28T15:48:44;18.20;;;12.50;;
36443;SDS011;24692;45.642;13.806;2023-02-28T15:51:18;18.03;;;12.27;;
36443;SDS011;24692;45.642;13.806;2023-02-28T15:56:31;17.03;;;11.97;;
36443;SDS011;24692;45.642;13.806;2023-02-28T15:59:03;18.97;;;13.13;;
36443;SDS011;24692;45.642;13.806;2023-02-28T16:01:34;19.40;;;12.37;;
36443;SDS011;24692;45.642;13.806;2023-02-28T16:04:05;19.23;;;12.77;;
36443;SDS011;24692;45.642;13.806;2023-02-28T16:09:22;22.43;;;13.93;;
36443;SDS011;24692;45.642;13.806;2023-02-28T16:11:49;21.60;;;13.53;;
36443;SDS011;24692;45.642;13.806;2023-02-28T16:14:17;20.10;;;12.63;;
36443;SDS011;24692;45.642;13.806;2023-02-28T16:16:50;19.17;;;13.27;;
36443;SDS011;24692;45.642;13.806;2023-02-28T16:19:17;20.33;;;12.03;;
36443;SDS011;24692;45.642;13.806;2023-02-28T16:21:43;21.53;;;14.20;;
36443;SDS011;24692;45.642;13.806;2023-02-28T16:24:10;20.53;;;13.27;;
36443;SDS011;24692;45.642;13.806;2023-02-28T16:26:35;22.23;;;13.90;;
36443;SDS011;24692;45.642;13.806;2023-02-28T16:29:04;23.67;;;14.63;;
36443;SDS011;24692;45.642;13.806;2023-02-28T16:31:32;19.43;;;13.40;;
36443;SDS011;24692;45.642;13.806;2023-02-28T16:34:00;22.90;;;13.97;;
36443;SDS011;24692;45.642;13.806;2023-02-28T16:36:26;23.47;;;14.83;;
36443;SDS011;24692;45.642;13.806;2023-02-28T16:38:53;24.60;;;14.50;;
36443;SDS011;24692;45.642;13.806;2023-02-28T16:41:20;26.23;;;14.73;;
36443;SDS011;24692;45.642;13.806;2023-02-28T16:43:50;20.87;;;14.03;;
36443;SDS011;24692;45.642;13.806;2023-02-28T16:46:17;24.23;;;15.17;;
36443;SDS011;24692;45.642;13.806;2023-02-28T16:48:44;24.07;;;14.60;;
36443;SDS011;24692;45.642;13.806;2023-02-28T16:51:11;26.33;;;15.63;;
36443;SDS011;24692;45.642;13.806;2023-02-28T16:53:38;22.37;;;13.60;;
36443;SDS011;24692;45.642;13.806;2023-02-28T16:56:04;22.50;;;14.27;;
36443;SDS011;24692;45.642;13.806;2023-02-28T16:58:32;26.50;;;15.07;;
36443;SDS011;24692;45.642;13.806;2023-02-28T17:01:00;22.40;;;15.00;;
36443;SDS011;24692;45.642;13.806;2023-02-28T17:03:27;25.73;;;15.43;;
36443;SDS011;24692;45.642;13.806;2023-02-28T17:05:53;24.33;;;14.33;;
36443;SDS011;24692;45.642;13.806;2023-02-28T17:08:19;23.07;;;14.10;;
36443;SDS011;24692;45.642;13.806;2023-02-28T17:10:45;24.07;;;15.23;;
36443;SDS011;24692;45.642;13.806;2023-02-28T17:13:11;25.53;;;14.80;;